sensor_id;sensor_type;location;lat;lon;timestamp;P1;durP1;ratioP1;P2;durP2;ratioP2
57627;SDS011;43451;49.060;10.616;2024-01-16T00:00:07;9.75;;;4.20;;
57627;SDS011;43451;49.060;10.616;2024-01-16T00:02:34;7.95;;;4.00;;
57627;SDS011;43451;49.060;10.616;2024-01-16T00:04:59;7.97;;;3.97;;
57627;SDS011;43451;49.060;10.616;2024-01-16T00:07:25;9.45;;;4.13;;
57627;SDS011;43451;49.060;10.616;2024-01-16T00:09:50;7.18;;;3.80;;
57627;SDS011;43451;49.060;10.616;2024-01-16T00:12:17;7.95;;;4.07;;
57627;SDS011;43451;49.060;10.616;2024-01-16T00:14:43;6.82;;;4.03;;
57627;SDS011;43451;49.060;10.616;2024-01-16T00:17:09;7.15;;;3.97;;
57627;SDS011;43451;49.060;10.616;2024-01-16T00:19:35;7.13;;;4.00;;
57627;SDS011;43451;49.060;10.616;2024-01-16T00:22:00;9.07;;;4.40;;
57627;SDS011;43451;49.060;10.616;2024-01-16T00:24:28;7.15;;;4.00;;
57627;SDS011;43451;49.060;10.616;2024-01-16T00:26:53;12.82;;;4.90;;
57627;SDS011;43451;49.060;10.616;2024-01-16T00:29:19;8.52;;;4.20;;
57627;SDS011;43451;49.060;10.616;2024-01-16T00:31:45;7.78;;;4.25;;
57627;SDS011;43451;49.060;10.616;2024-01-16T00:34:10;6.10;;;4.10;;
57627;SDS011;43451;49.060;10.616;2024-01-16T00:36:36;11.07;;;4.38;;
57627;SDS011;43451;49.060;10.616;2024-01-16T00:39:02;8.77;;;4.47;;
57627;SDS011;43451;49.060;10.616;2024-01-16T00:41:28;10.25;;;4.82;;
57627;SDS011;43451;49.060;10.616;2024-01-16T00:43:54;8.27;;;4.63;;
57627;SDS011;43451;49.060;10.616;2024-01-16T00:46:19;7.75;;;4.57;;
57627;SDS011;43451;49.060;10.616;2024-01-16T00:48:45;9.73;;;4.45;;
57627;SDS011;43451;49.060;10.616;2024-01-16T00:51:11;8.88;;;4.40;;
57627;SDS011;43451;49.060;10.616;2024-01-16T00:53:40;7.03;;;4.00;;
57627;SDS011;43451;49.060;10.616;2024-01-16T00:56:06;8.60;;;4.70;;
57627;SDS011;43451;49.060;10.616;2024-01-16T00:58:32;7.30;;;4.10;;
57627;SDS011;43451;49.060;10.616;2024-01-16T01:00:57;8.70;;;5.30;;
57627;SDS011;43451;49.060;10.616;2024-01-16T01:03:23;12.77;;;4.40;;
57627;SDS011;43451;49.060;10.616;2024-01-16T01:05:48;9.32;;;4.70;;
57627;SDS011;43451;49.060;10.616;2024-01-16T01:08:14;10.48;;;4.30;;
57627;SDS011;43451;49.060;10.616;2024-01-16T01:10:39;8.18;;;4.50;;
57627;SDS011;43451;49.060;10.616;2024-01-16T01:13:05;10.02;;;4.18;;
57627;SDS011;43451;49.060;10.616;2024-01-16T01:15:30;7.68;;;4.47;;
57627;SDS011;43451;49.060;10.616;2024-01-16T01:17:56;7.38;;;4.18;;
57627;SDS011;43451;49.060;10.616;2024-01-16T01:20:21;7.45;;;4.40;;
57627;SDS011;43451;49.060;10.616;2024-01-16T01:22:47;7.05;;;4.07;;
57627;SDS011;43451;49.060;10.616;2024-01-16T01:25:12;8.38;;;4.47;;
57627;SDS011;43451;49.060;10.616;2024-01-16T01:27:38;7.88;;;4.20;;
57627;SDS011;43451;49.060;10.616;2024-01-16T01:30:04;8.00;;;4.40;;
57627;SDS011;43451;49.060;10.616;2024-01-16T01:32:36;8.73;;;4.38;;
57627;SDS011;43451;49.060;10.616;2024-01-16T01:35:02;8.15;;;4.18;;
57627;SDS011;43451;49.060;10.616;2024-01-16T01:37:28;8.30;;;4.82;;
57627;SDS011;43451;49.060;10.616;2024-01-16T01:39:54;8.57;;;4.80;;
57627;SDS011;43451;49.060;10.616;2024-01-16T01:42:19;8.95;;;4.53;;
57627;SDS011;43451;49.060;10.616;2024-01-16T01:44:45;6.75;;;4.32;;
57627;SDS011;43451;49.060;10.616;2024-01-16T01:47:10;10.48;;;4.85;;
57627;SDS011;43451;49.060;10.616;2024-01-16T01:49:37;8.15;;;4.28;;
57627;SDS011;43451;49.060;10.616;2024-01-16T01:52:03;7.55;;;4.63;;
57627;SDS011;43451;49.060;10.616;2024-01-16T01:54:29;9.82;;;4.40;;
57627;SDS011;43451;49.060;10.616;2024-01-16T01:56:58;8.10;;;4.63;;
57627;SDS011;43451;49.060;10.616;2024-01-16T01:59:24;8.48;;;4.38;;
57627;SDS011;43451;49.060;10.616;2024-01-16T02:01:51;8.00;;;4.47;;
57627;SDS011;43451;49.060;10.616;2024-01-16T02:04:20;7.13;;;4.18;;
57627;SDS011;43451;49.060;10.616;2024-01-16T02:06:46;9.27;;;4.47;;
57627;SDS011;43451;49.060;10.616;2024-01-16T02:09:12;10.30;;;4.60;;
57627;SDS011;43451;49.060;10.616;2024-01-16T02:11:41;9.77;;;4.75;;
57627;SDS011;43451;49.060;10.616;2024-01-16T02:14:07;6.50;;;4.65;;
57627;SDS011;43451;49.060;10.616;2024-01-16T02:16:38;8.57;;;4.53;;
57627;SDS011;43451;49.060;10.616;2024-01-16T02:19:04;8.32;;;4.63;;
57627;SDS011;43451;49.060;10.616;2024-01-16T02:21:32;7.78;;;4.53;;
57627;SDS011;43451;49.060;10.616;2024-01-16T02:24:09;12.13;;;4.90;;
57627;SDS011;43451;49.060;10.616;2024-01-16T02:26:37;9.93;;;4.65;;
57627;SDS011;43451;49.060;10.616;2024-01-16T02:29:03;9.15;;;4.80;;
57627;SDS011;43451;49.060;10.616;2024-01-16T02:31:29;7.47;;;4.70;;
57627;SDS011;43451;49.060;10.616;2024-01-16T02:33:56;8.15;;;4.53;;
57627;SDS011;43451;49.060;10.616;2024-01-16T02:36:21;7.80;;;4.30;;
57627;SDS011;43451;49.060;10.616;2024-01-16T02:38:47;8.13;;;4.20;;
57627;SDS011;43451;49.060;10.616;2024-01-16T02:41:16;9.30;;;4.50;;
57627;SDS011;43451;49.060;10.616;2024-01-16T02:43:42;7.30;;;4.00;;
57627;SDS011;43451;49.060;10.616;2024-01-16T02:46:08;9.05;;;4.43;;
57627;SDS011;43451;49.060;10.616;2024-01-16T02:48:34;5.95;;;3.70;;
57627;SDS011;43451;49.060;10.616;2024-01-16T02:51:00;9.00;;;4.53;;
57627;SDS011;43451;49.060;10.616;2024-01-16T02:53:26;9.32;;;4.30;;
57627;SDS011;43451;49.060;10.616;2024-01-16T02:55:53;7.88;;;4.20;;
57627;SDS011;43451;49.060;10.616;2024-01-16T02:58:19;8.27;;;4.40;;
57627;SDS011;43451;49.060;10.616;2024-01-16T03:00:46;8.57;;;4.20;;
57627;SDS011;43451;49.060;10.616;2024-01-16T03:03:12;8.55;;;4.05;;
57627;SDS011;43451;49.060;10.616;2024-01-16T03:05:39;9.52;;;4.40;;
57627;SDS011;43451;49.060;10.616;2024-01-16T03:08:05;6.40;;;4.30;;
57627;SDS011;43451;49.060;10.616;2024-01-16T03:10:30;9.55;;;4.43;;
57627;SDS011;43451;49.060;10.616;2024-01-16T03:12:56;9.23;;;4.60;;
57627;SDS011;43451;49.060;10.616;2024-01-16T03:15:22;6.43;;;3.83;;
57627;SDS011;43451;49.060;10.616;2024-01-16T03:17:47;7.57;;;3.80;;
57627;SDS011;43451;49.060;10.616;2024-01-16T03:20:14;9.77;;;4.55;;
57627;SDS011;43451;49.060;10.616;2024-01-16T03:22:40;8.63;;;3.97;;
57627;SDS011;43451;49.060;10.616;2024-01-16T03:25:07;9.50;;;4.50;;
57627;SDS011;43451;49.060;10.616;2024-01-16T03:27:33;6.03;;;3.92;;
57627;SDS011;43451;49.060;10.616;2024-01-16T03:29:59;7.38;;;3.85;;
57627;SDS011;43451;49.060;10.616;2024-01-16T03:32:26;6.68;;;4.10;;
57627;SDS011;43451;49.060;10.616;2024-01-16T03:34:51;8.05;;;4.13;;
57627;SDS011;43451;49.060;10.616;2024-01-16T03:37:17;7.32;;;4.15;;
57627;SDS011;43451;49.060;10.616;2024-01-16T03:39:42;7.47;;;4.18;;
57627;SDS011;43451;49.060;10.616;2024-01-16T03:42:10;13.00;;;4.93;;
57627;SDS011;43451;49.060;10.616;2024-01-16T03:44:38;9.77;;;4.15;;
57627;SDS011;43451;49.060;10.616;2024-01-16T03:47:05;9.57;;;4.50;;
57627;SDS011;43451;49.060;10.616;2024-01-16T03:49:30;7.47;;;4.35;;
57627;SDS011;43451;49.060;10.616;2024-01-16T03:51:56;9.13;;;4.50;;
57627;SDS011;43451;49.060;10.616;2024-01-16T03:54:21;10.57;;;4.30;;
57627;SDS011;43451;49.060;10.616;2024-01-16T03:56:47;8.00;;;4.03;;
57627;SDS011;43451;49.060;10.616;2024-01-16T03:59:12;7.07;;;4.05;;
57627;SDS011;43451;49.060;10.616;2024-01-16T04:01:39;8.23;;;4.38;;
57627;SDS011;43451;49.060;10.616;2024-01-16T04:04:06;7.15;;;4.50;;
57627;SDS011;43451;49.060;10.616;2024-01-16T04:06:31;9.57;;;4.43;;
57627;SDS011;43451;49.060;10.616;2024-01-16T04:08:58;8.45;;;4.40;;
57627;SDS011;43451;49.060;10.616;2024-01-16T04:11:23;8.57;;;4.50;;
57627;SDS011;43451;49.060;10.616;2024-01-16T04:13:49;11.05;;;4.60;;
57627;SDS011;43451;49.060;10.616;2024-01-16T04:16:15;8.60;;;4.20;;
57627;SDS011;43451;49.060;10.616;2024-01-16T04:18:41;10.65;;;4.95;;
57627;SDS011;43451;49.060;10.616;2024-01-16T04:21:08;12.63;;;4.87;;
57627;SDS011;43451;49.060;10.616;2024-01-16T04:23:33;8.73;;;4.40;;
57627;SDS011;43451;49.060;10.616;2024-01-16T04:25:59;8.13;;;4.53;;
57627;SDS011;43451;49.060;10.616;2024-01-16T04:28:25;8.57;;;4.40;;
57627;SDS011;43451;49.060;10.616;2024-01-16T04:30:51;7.82;;;4.15;;
57627;SDS011;43451;49.060;10.616;2024-01-16T04:33:16;8.10;;;4.10;;
57627;SDS011;43451;49.060;10.616;2024-01-16T04:35:42;9.27;;;4.68;;
57627;SDS011;43451;49.060;10.616;2024-01-16T04:38:08;7.97;;;4.72;;
57627;SDS011;43451;49.060;10.616;2024-01-16T04:40:33;8.65;;;4.75;;
57627;SDS011;43451;49.060;10.616;2024-01-16T04:42:59;9.13;;;5.13;;
57627;SDS011;43451;49.060;10.616;2024-01-16T04:45:25;9.18;;;4.88;;
57627;SDS011;43451;49.060;10.616;2024-01-16T04:47:50;11.73;;;5.00;;
57627;SDS011;43451;49.060;10.616;2024-01-16T04:50:16;11.07;;;4.75;;
57627;SDS011;43451;49.060;10.616;2024-01-16T04:52:41;10.15;;;4.80;;
57627;SDS011;43451;49.060;10.616;2024-01-16T04:55:08;8.32;;;4.88;;
57627;SDS011;43451;49.060;10.616;2024-01-16T04:57:34;9.68;;;4.80;;
57627;SDS011;43451;49.060;10.616;2024-01-16T05:00:00;12.68;;;5.20;;
57627;SDS011;43451;49.060;10.616;2024-01-16T05:02:26;10.13;;;5.18;;
57627;SDS011;43451;49.060;10.616;2024-01-16T05:04:51;10.68;;;4.93;;
57627;SDS011;43451;49.060;10.616;2024-01-16T05:07:20;9.05;;;4.75;;
57627;SDS011;43451;49.060;10.616;2024-01-16T05:09:48;10.90;;;5.00;;
57627;SDS011;43451;49.060;10.616;2024-01-16T05:12:14;9.63;;;4.80;;
57627;SDS011;43451;49.060;10.616;2024-01-16T05:14:39;9.48;;;4.53;;
57627;SDS011;43451;49.060;10.616;2024-01-16T05:17:05;9.98;;;4.40;;
57627;SDS011;43451;49.060;10.616;2024-01-16T05:19:31;9.80;;;5.20;;
57627;SDS011;43451;49.060;10.616;2024-01-16T05:21:57;9.32;;;5.05;;
57627;SDS011;43451;49.060;10.616;2024-01-16T05:24:22;8.25;;;4.20;;
57627;SDS011;43451;49.060;10.616;2024-01-16T05:26:48;8.55;;;4.43;;
57627;SDS011;43451;49.060;10.616;2024-01-16T05:29:13;8.55;;;4.80;;
57627;SDS011;43451;49.060;10.616;2024-01-16T05:31:42;8.75;;;4.90;;
57627;SDS011;43451;49.060;10.616;2024-01-16T05:34:08;11.43;;;4.55;;
57627;SDS011;43451;49.060;10.616;2024-01-16T05:36:34;9.88;;;4.90;;
57627;SDS011;43451;49.060;10.616;2024-01-16T05:38:59;10.60;;;4.80;;
57627;SDS011;43451;49.060;10.616;2024-01-16T05:41:26;9.98;;;4.80;;
57627;SDS011;43451;49.060;10.616;2024-01-16T05:43:51;9.30;;;4.65;;
57627;SDS011;43451;49.060;10.616;2024-01-16T05:46:17;9.80;;;4.82;;
57627;SDS011;43451;49.060;10.616;2024-01-16T05:48:43;10.23;;;5.03;;
57627;SDS011;43451;49.060;10.616;2024-01-16T05:51:09;9.80;;;4.97;;
57627;SDS011;43451;49.060;10.616;2024-01-16T05:53:34;14.00;;;5.28;;
57627;SDS011;43451;49.060;10.616;2024-01-16T05:56:00;9.13;;;5.13;;
57627;SDS011;43451;49.060;10.616;2024-01-16T05:58:26;9.30;;;4.85;;
57627;SDS011;43451;49.060;10.616;2024-01-16T06:00:51;8.35;;;4.45;;
57627;SDS011;43451;49.060;10.616;2024-01-16T06:03:16;9.43;;;4.55;;
57627;SDS011;43451;49.060;10.616;2024-01-16T06:05:42;10.18;;;4.80;;
57627;SDS011;43451;49.060;10.616;2024-01-16T06:08:07;10.38;;;5.22;;
57627;SDS011;43451;49.060;10.616;2024-01-16T06:10:33;9.57;;;5.18;;
57627;SDS011;43451;49.060;10.616;2024-01-16T06:12:58;9.95;;;4.63;;
57627;SDS011;43451;49.060;10.616;2024-01-16T06:15:24;10.15;;;4.85;;
57627;SDS011;43451;49.060;10.616;2024-01-16T06:17:49;9.75;;;5.05;;
57627;SDS011;43451;49.060;10.616;2024-01-16T06:20:15;9.30;;;4.65;;
57627;SDS011;43451;49.060;10.616;2024-01-16T06:22:40;8.75;;;4.78;;
57627;SDS011;43451;49.060;10.616;2024-01-16T06:25:06;8.38;;;4.63;;
57627;SDS011;43451;49.060;10.616;2024-01-16T06:27:32;10.30;;;4.88;;
57627;SDS011;43451;49.060;10.616;2024-01-16T06:29:57;10.00;;;4.50;;
57627;SDS011;43451;49.060;10.616;2024-01-16T06:32:23;9.57;;;4.55;;
57627;SDS011;43451;49.060;10.616;2024-01-16T06:34:49;8.70;;;4.55;;
57627;SDS011;43451;49.060;10.616;2024-01-16T06:37:15;9.18;;;4.80;;
57627;SDS011;43451;49.060;10.616;2024-01-16T06:39:40;8.43;;;4.40;;
57627;SDS011;43451;49.060;10.616;2024-01-16T06:42:06;9.80;;;4.38;;
57627;SDS011;43451;49.060;10.616;2024-01-16T06:44:32;8.80;;;4.50;;
57627;SDS011;43451;49.060;10.616;2024-01-16T06:46:57;8.68;;;4.40;;
57627;SDS011;43451;49.060;10.616;2024-01-16T06:49:23;9.15;;;4.68;;
57627;SDS011;43451;49.060;10.616;2024-01-16T06:51:48;10.05;;;4.50;;
57627;SDS011;43451;49.060;10.616;2024-01-16T06:54:14;10.77;;;4.65;;
57627;SDS011;43451;49.060;10.616;2024-01-16T06:56:39;13.43;;;4.97;;
57627;SDS011;43451;49.060;10.616;2024-01-16T06:59:05;9.18;;;4.20;;
57627;SDS011;43451;49.060;10.616;2024-01-16T07:01:31;9.00;;;4.75;;
57627;SDS011;43451;49.060;10.616;2024-01-16T07:03:56;9.50;;;4.53;;
57627;SDS011;43451;49.060;10.616;2024-01-16T07:06:22;11.30;;;4.47;;
57627;SDS011;43451;49.060;10.616;2024-01-16T07:08:47;9.07;;;4.80;;
57627;SDS011;43451;49.060;10.616;2024-01-16T07:11:13;9.45;;;5.10;;
57627;SDS011;43451;49.060;10.616;2024-01-16T07:13:43;11.52;;;5.32;;
57627;SDS011;43451;49.060;10.616;2024-01-16T07:16:09;10.25;;;4.82;;
57627;SDS011;43451;49.060;10.616;2024-01-16T07:18:35;9.48;;;4.88;;
57627;SDS011;43451;49.060;10.616;2024-01-16T07:21:01;11.48;;;4.82;;
57627;SDS011;43451;49.060;10.616;2024-01-16T07:23:28;11.60;;;5.10;;
57627;SDS011;43451;49.060;10.616;2024-01-16T07:25:54;11.88;;;4.82;;
57627;SDS011;43451;49.060;10.616;2024-01-16T07:28:19;9.90;;;5.07;;
57627;SDS011;43451;49.060;10.616;2024-01-16T07:30:47;10.88;;;4.85;;
57627;SDS011;43451;49.060;10.616;2024-01-16T07:33:12;8.27;;;4.13;;
57627;SDS011;43451;49.060;10.616;2024-01-16T07:35:38;8.77;;;5.03;;
57627;SDS011;43451;49.060;10.616;2024-01-16T07:38:06;8.98;;;4.75;;
57627;SDS011;43451;49.060;10.616;2024-01-16T07:40:31;9.38;;;4.80;;
57627;SDS011;43451;49.060;10.616;2024-01-16T07:42:57;10.00;;;5.32;;
57627;SDS011;43451;49.060;10.616;2024-01-16T07:45:23;12.02;;;4.63;;
57627;SDS011;43451;49.060;10.616;2024-01-16T07:47:49;9.48;;;5.00;;
57627;SDS011;43451;49.060;10.616;2024-01-16T07:50:15;9.02;;;4.88;;
57627;SDS011;43451;49.060;10.616;2024-01-16T07:52:40;13.38;;;5.05;;
57627;SDS011;43451;49.060;10.616;2024-01-16T07:55:06;9.07;;;5.22;;
57627;SDS011;43451;49.060;10.616;2024-01-16T07:57:31;11.63;;;5.25;;
57627;SDS011;43451;49.060;10.616;2024-01-16T07:59:57;12.02;;;4.95;;
57627;SDS011;43451;49.060;10.616;2024-01-16T08:02:26;7.97;;;4.10;;
57627;SDS011;43451;49.060;10.616;2024-01-16T08:04:56;10.10;;;4.45;;
57627;SDS011;43451;49.060;10.616;2024-01-16T08:07:22;9.90;;;4.70;;
57627;SDS011;43451;49.060;10.616;2024-01-16T08:09:47;9.05;;;4.38;;
57627;SDS011;43451;49.060;10.616;2024-01-16T08:12:13;6.93;;;3.92;;
57627;SDS011;43451;49.060;10.616;2024-01-16T08:14:39;8.18;;;4.07;;
57627;SDS011;43451;49.060;10.616;2024-01-16T08:17:04;9.57;;;4.88;;
57627;SDS011;43451;49.060;10.616;2024-01-16T08:19:30;8.07;;;4.20;;
57627;SDS011;43451;49.060;10.616;2024-01-16T08:21:56;8.23;;;3.95;;
57627;SDS011;43451;49.060;10.616;2024-01-16T08:24:22;9.57;;;4.15;;
57627;SDS011;43451;49.060;10.616;2024-01-16T08:26:47;9.02;;;4.22;;
57627;SDS011;43451;49.060;10.616;2024-01-16T08:29:13;8.80;;;4.38;;
57627;SDS011;43451;49.060;10.616;2024-01-16T08:31:40;7.57;;;3.90;;
57627;SDS011;43451;49.060;10.616;2024-01-16T08:34:05;7.43;;;4.20;;
57627;SDS011;43451;49.060;10.616;2024-01-16T08:36:31;8.05;;;4.05;;
57627;SDS011;43451;49.060;10.616;2024-01-16T08:38:56;9.82;;;4.47;;
57627;SDS011;43451;49.060;10.616;2024-01-16T08:41:22;8.43;;;3.92;;
57627;SDS011;43451;49.060;10.616;2024-01-16T08:43:48;8.73;;;4.20;;
57627;SDS011;43451;49.060;10.616;2024-01-16T08:46:14;8.40;;;4.25;;
57627;SDS011;43451;49.060;10.616;2024-01-16T08:48:40;9.13;;;4.00;;
57627;SDS011;43451;49.060;10.616;2024-01-16T08:51:07;7.80;;;4.13;;
57627;SDS011;43451;49.060;10.616;2024-01-16T08:53:37;6.63;;;3.95;;
57627;SDS011;43451;49.060;10.616;2024-01-16T08:56:02;6.28;;;3.45;;
57627;SDS011;43451;49.060;10.616;2024-01-16T08:58:29;7.18;;;4.03;;
57627;SDS011;43451;49.060;10.616;2024-01-16T09:00:55;8.23;;;3.90;;
57627;SDS011;43451;49.060;10.616;2024-01-16T09:03:20;7.47;;;4.18;;
57627;SDS011;43451;49.060;10.616;2024-01-16T09:05:46;8.73;;;3.70;;
57627;SDS011;43451;49.060;10.616;2024-01-16T09:08:11;9.32;;;3.95;;
57627;SDS011;43451;49.060;10.616;2024-01-16T09:10:37;7.03;;;3.85;;
57627;SDS011;43451;49.060;10.616;2024-01-16T09:13:03;7.03;;;3.78;;
57627;SDS011;43451;49.060;10.616;2024-01-16T09:15:28;9.45;;;4.18;;
57627;SDS011;43451;49.060;10.616;2024-01-16T09:17:54;8.25;;;3.90;;
57627;SDS011;43451;49.060;10.616;2024-01-16T09:20:19;8.73;;;4.57;;
57627;SDS011;43451;49.060;10.616;2024-01-16T09:22:45;7.43;;;4.85;;
57627;SDS011;43451;49.060;10.616;2024-01-16T09:25:11;9.95;;;4.90;;
57627;SDS011;43451;49.060;10.616;2024-01-16T09:27:36;8.98;;;4.07;;
57627;SDS011;43451;49.060;10.616;2024-01-16T09:30:03;7.40;;;4.22;;
57627;SDS011;43451;49.060;10.616;2024-01-16T09:32:29;9.83;;;4.77;;
57627;SDS011;43451;49.060;10.616;2024-01-16T09:34:55;7.78;;;3.92;;
57627;SDS011;43451;49.060;10.616;2024-01-16T09:37:20;9.77;;;4.70;;
57627;SDS011;43451;49.060;10.616;2024-01-16T09:39:46;9.05;;;4.25;;
57627;SDS011;43451;49.060;10.616;2024-01-16T09:42:11;10.68;;;4.45;;
57627;SDS011;43451;49.060;10.616;2024-01-16T09:44:38;7.47;;;3.97;;
57627;SDS011;43451;49.060;10.616;2024-01-16T09:47:03;8.00;;;4.22;;
57627;SDS011;43451;49.060;10.616;2024-01-16T09:49:32;8.82;;;4.25;;
57627;SDS011;43451;49.060;10.616;2024-01-16T09:51:58;7.25;;;4.55;;
57627;SDS011;43451;49.060;10.616;2024-01-16T09:54:24;7.25;;;4.32;;
57627;SDS011;43451;49.060;10.616;2024-01-16T09:56:51;8.85;;;4.35;;
57627;SDS011;43451;49.060;10.616;2024-01-16T09:59:22;16.75;;;7.63;;
57627;SDS011;43451;49.060;10.616;2024-01-16T10:01:49;9.55;;;4.65;;
57627;SDS011;43451;49.060;10.616;2024-01-16T10:04:18;8.68;;;4.28;;
57627;SDS011;43451;49.060;10.616;2024-01-16T10:06:45;6.40;;;4.13;;
57627;SDS011;43451;49.060;10.616;2024-01-16T10:09:14;10.15;;;4.53;;
57627;SDS011;43451;49.060;10.616;2024-01-16T10:11:41;10.00;;;4.25;;
57627;SDS011;43451;49.060;10.616;2024-01-16T10:14:07;9.82;;;4.40;;
57627;SDS011;43451;49.060;10.616;2024-01-16T10:16:54;8.55;;;4.82;;
57627;SDS011;43451;49.060;10.616;2024-01-16T10:22:19;9.77;;;4.47;;
57627;SDS011;43451;49.060;10.616;2024-01-16T10:24:50;8.90;;;4.47;;
57627;SDS011;43451;49.060;10.616;2024-01-16T10:27:45;13.60;;;4.55;;
57627;SDS011;43451;49.060;10.616;2024-01-16T10:30:11;8.60;;;4.80;;
57627;SDS011;43451;49.060;10.616;2024-01-16T10:32:37;9.75;;;5.20;;
57627;SDS011;43451;49.060;10.616;2024-01-16T10:37:52;8.38;;;4.03;;
57627;SDS011;43451;49.060;10.616;2024-01-16T10:40:19;8.75;;;4.20;;
57627;SDS011;43451;49.060;10.616;2024-01-16T10:42:58;7.22;;;4.05;;
57627;SDS011;43451;49.060;10.616;2024-01-16T10:45:25;8.23;;;4.25;;
57627;SDS011;43451;49.060;10.616;2024-01-16T10:48:04;9.00;;;4.20;;
57627;SDS011;43451;49.060;10.616;2024-01-16T10:50:31;8.07;;;4.30;;
57627;SDS011;43451;49.060;10.616;2024-01-16T10:52:59;8.30;;;4.20;;
57627;SDS011;43451;49.060;10.616;2024-01-16T10:55:28;9.65;;;4.38;;
57627;SDS011;43451;49.060;10.616;2024-01-16T10:57:55;9.35;;;4.50;;
57627;SDS011;43451;49.060;10.616;2024-01-16T11:00:22;7.82;;;4.10;;
57627;SDS011;43451;49.060;10.616;2024-01-16T11:02:55;7.80;;;4.28;;
57627;SDS011;43451;49.060;10.616;2024-01-16T11:05:23;8.77;;;4.40;;
57627;SDS011;43451;49.060;10.616;2024-01-16T11:07:49;8.98;;;4.78;;
57627;SDS011;43451;49.060;10.616;2024-01-16T11:10:16;8.35;;;4.35;;
57627;SDS011;43451;49.060;10.616;2024-01-16T11:12:43;9.38;;;3.97;;
57627;SDS011;43451;49.060;10.616;2024-01-16T11:15:10;6.27;;;3.97;;
57627;SDS011;43451;49.060;10.616;2024-01-16T11:17:37;12.88;;;4.68;;
57627;SDS011;43451;49.060;10.616;2024-01-16T11:20:05;8.17;;;4.67;;
57627;SDS011;43451;49.060;10.616;2024-01-16T11:22:38;9.40;;;4.63;;
57627;SDS011;43451;49.060;10.616;2024-01-16T11:27:39;6.70;;;3.60;;
57627;SDS011;43451;49.060;10.616;2024-01-16T11:30:06;6.80;;;3.28;;
57627;SDS011;43451;49.060;10.616;2024-01-16T11:32:34;6.80;;;3.25;;
57627;SDS011;43451;49.060;10.616;2024-01-16T11:35:01;5.28;;;3.33;;
57627;SDS011;43451;49.060;10.616;2024-01-16T11:37:28;7.90;;;3.25;;
57627;SDS011;43451;49.060;10.616;2024-01-16T11:42:51;7.07;;;3.33;;
57627;SDS011;43451;49.060;10.616;2024-01-16T11:50:44;10.02;;;3.47;;
57627;SDS011;43451;49.060;10.616;2024-01-16T11:53:10;6.72;;;3.25;;
57627;SDS011;43451;49.060;10.616;2024-01-16T11:56:00;6.90;;;3.28;;
57627;SDS011;43451;49.060;10.616;2024-01-16T12:01:10;8.43;;;3.17;;
57627;SDS011;43451;49.060;10.616;2024-01-16T12:03:37;6.05;;;2.90;;
57627;SDS011;43451;49.060;10.616;2024-01-16T12:06:02;5.75;;;3.08;;
57627;SDS011;43451;49.060;10.616;2024-01-16T12:08:31;7.72;;;2.95;;
57627;SDS011;43451;49.060;10.616;2024-01-16T12:10:57;5.68;;;3.30;;
57627;SDS011;43451;49.060;10.616;2024-01-16T12:13:24;4.97;;;3.00;;
57627;SDS011;43451;49.060;10.616;2024-01-16T12:15:59;8.18;;;3.00;;
57627;SDS011;43451;49.060;10.616;2024-01-16T12:18:29;10.00;;;3.13;;
57627;SDS011;43451;49.060;10.616;2024-01-16T12:20:54;9.95;;;3.10;;
57627;SDS011;43451;49.060;10.616;2024-01-16T12:23:20;8.05;;;3.17;;
57627;SDS011;43451;49.060;10.616;2024-01-16T12:25:47;6.45;;;3.17;;
57627;SDS011;43451;49.060;10.616;2024-01-16T12:28:19;6.57;;;3.22;;
57627;SDS011;43451;49.060;10.616;2024-01-16T12:30:48;6.57;;;3.13;;
57627;SDS011;43451;49.060;10.616;2024-01-16T12:33:15;7.57;;;3.55;;
57627;SDS011;43451;49.060;10.616;2024-01-16T12:35:42;5.78;;;3.15;;
57627;SDS011;43451;49.060;10.616;2024-01-16T12:38:10;6.82;;;3.40;;
57627;SDS011;43451;49.060;10.616;2024-01-16T12:40:37;6.35;;;3.38;;
57627;SDS011;43451;49.060;10.616;2024-01-16T12:43:07;7.30;;;3.80;;
57627;SDS011;43451;49.060;10.616;2024-01-16T12:45:34;7.23;;;3.47;;
57627;SDS011;43451;49.060;10.616;2024-01-16T12:48:01;6.45;;;3.63;;
57627;SDS011;43451;49.060;10.616;2024-01-16T12:50:28;7.93;;;3.80;;
57627;SDS011;43451;49.060;10.616;2024-01-16T12:53:08;8.27;;;3.50;;
57627;SDS011;43451;49.060;10.616;2024-01-16T12:55:36;7.25;;;3.55;;
57627;SDS011;43451;49.060;10.616;2024-01-16T12:58:15;6.55;;;4.07;;
57627;SDS011;43451;49.060;10.616;2024-01-16T13:00:45;6.40;;;3.28;;
57627;SDS011;43451;49.060;10.616;2024-01-16T13:03:14;9.10;;;3.58;;
57627;SDS011;43451;49.060;10.616;2024-01-16T13:05:44;7.32;;;3.50;;
57627;SDS011;43451;49.060;10.616;2024-01-16T13:08:16;6.63;;;3.20;;
57627;SDS011;43451;49.060;10.616;2024-01-16T13:10:44;6.90;;;3.22;;
57627;SDS011;43451;49.060;10.616;2024-01-16T13:13:13;5.22;;;3.30;;
57627;SDS011;43451;49.060;10.616;2024-01-16T13:15:42;13.00;;;4.53;;
57627;SDS011;43451;49.060;10.616;2024-01-16T13:18:30;7.03;;;3.08;;
57627;SDS011;43451;49.060;10.616;2024-01-16T13:20:56;7.57;;;3.40;;
57627;SDS011;43451;49.060;10.616;2024-01-16T13:23:22;6.05;;;3.17;;
57627;SDS011;43451;49.060;10.616;2024-01-16T13:25:52;7.05;;;3.03;;
57627;SDS011;43451;49.060;10.616;2024-01-16T13:28:19;6.53;;;3.17;;
57627;SDS011;43451;49.060;10.616;2024-01-16T13:30:46;8.27;;;3.42;;
57627;SDS011;43451;49.060;10.616;2024-01-16T13:33:12;6.82;;;3.63;;
57627;SDS011;43451;49.060;10.616;2024-01-16T13:35:42;7.57;;;3.38;;
57627;SDS011;43451;49.060;10.616;2024-01-16T13:38:10;5.43;;;3.45;;
57627;SDS011;43451;49.060;10.616;2024-01-16T13:40:36;5.80;;;3.50;;
57627;SDS011;43451;49.060;10.616;2024-01-16T13:43:02;8.88;;;3.85;;
57627;SDS011;43451;49.060;10.616;2024-01-16T13:45:28;6.95;;;3.47;;
57627;SDS011;43451;49.060;10.616;2024-01-16T13:47:54;6.00;;;3.33;;
57627;SDS011;43451;49.060;10.616;2024-01-16T13:50:20;5.95;;;3.30;;
57627;SDS011;43451;49.060;10.616;2024-01-16T13:52:46;8.18;;;3.22;;
57627;SDS011;43451;49.060;10.616;2024-01-16T13:55:11;8.15;;;3.75;;
57627;SDS011;43451;49.060;10.616;2024-01-16T13:57:37;6.32;;;3.33;;
57627;SDS011;43451;49.060;10.616;2024-01-16T14:00:03;7.78;;;3.10;;
57627;SDS011;43451;49.060;10.616;2024-01-16T14:02:31;6.53;;;3.30;;
57627;SDS011;43451;49.060;10.616;2024-01-16T14:04:57;7.07;;;3.55;;
57627;SDS011;43451;49.060;10.616;2024-01-16T14:07:22;9.00;;;3.55;;
57627;SDS011;43451;49.060;10.616;2024-01-16T14:09:48;4.80;;;3.15;;
57627;SDS011;43451;49.060;10.616;2024-01-16T14:12:13;7.47;;;3.42;;
57627;SDS011;43451;49.060;10.616;2024-01-16T14:14:39;7.55;;;3.10;;
57627;SDS011;43451;49.060;10.616;2024-01-16T14:17:06;6.93;;;3.13;;
57627;SDS011;43451;49.060;10.616;2024-01-16T14:19:35;17.00;;;3.78;;
57627;SDS011;43451;49.060;10.616;2024-01-16T14:22:01;6.47;;;3.45;;
57627;SDS011;43451;49.060;10.616;2024-01-16T14:24:26;7.53;;;3.63;;
57627;SDS011;43451;49.060;10.616;2024-01-16T14:26:52;6.55;;;3.50;;
57627;SDS011;43451;49.060;10.616;2024-01-16T14:29:17;6.20;;;3.35;;
57627;SDS011;43451;49.060;10.616;2024-01-16T14:31:46;7.75;;;3.67;;
57627;SDS011;43451;49.060;10.616;2024-01-16T14:34:14;6.97;;;3.53;;
57627;SDS011;43451;49.060;10.616;2024-01-16T14:36:40;9.48;;;3.72;;
57627;SDS011;43451;49.060;10.616;2024-01-16T14:39:06;6.50;;;3.45;;
57627;SDS011;43451;49.060;10.616;2024-01-16T14:41:41;8.23;;;3.90;;
57627;SDS011;43451;49.060;10.616;2024-01-16T14:44:08;7.07;;;3.83;;
57627;SDS011;43451;49.060;10.616;2024-01-16T14:46:35;7.35;;;3.40;;
57627;SDS011;43451;49.060;10.616;2024-01-16T14:49:00;10.90;;;3.97;;